EXS89H EGKK-LIRN
Flight info
| Callsign | EXS89H |
|---|---|
| Flight time | 2h 10m |
| Altitude | 35000 |
| Route | BOGNA L612 HAWKE UL612 OGULO DCT OKASI DCT OKEKO DCT MOU DCT MADIV DCT MOKIP DCT TUFTA DCT KOGAS DCT MEDAM DCT NITAM DCT MOGBO DCT MAREL DCT EVULI DCT ERIKA |
| Aircraft | A21N/M-SDE2E3FGHIRWXY/LB1 |
Departure
| Time | 2026-05-04 13:32 |
|---|---|
| Airport | London Gatwick Airport (EGKK) |
Arrival
| Time | 2026-05-04 15:43 |
|---|---|
| Airport | Naples International Airport (LIRN) |
| Time | Latitude | Longitude | Altitude | Speed | Heading |
|---|---|---|---|---|---|
| 2026-05-04 12:36 | 51.15575 | -0.17002 | 209 ft | 0 kts | 167° |
| 2026-05-04 13:18 | 51.15577 | -0.17002 | 213 ft | 2 kts | 167° |
| 2026-05-04 13:18 | 51.15603 | -0.17012 | 214 ft | 4 kts | 167° |
| 2026-05-04 13:19 | 51.15624 | -0.17019 | 216 ft | 4 kts | 179° |
| 2026-05-04 13:19 | 51.15639 | -0.17015 | 214 ft | 4 kts | 214° |
| 2026-05-04 13:19 | 51.15652 | -0.16972 | 214 ft | 4 kts | 257° |
| 2026-05-04 13:19 | 51.15655 | -0.16950 | 211 ft | 1 kts | 257° |
| 2026-05-04 13:22 | 51.15655 | -0.16955 | 212 ft | 2 kts | 257° |
| 2026-05-04 13:22 | 51.15646 | -0.17016 | 217 ft | 12 kts | 257° |
| 2026-05-04 13:23 | 51.15627 | -0.17157 | 213 ft | 14 kts | 258° |
| 2026-05-04 13:23 | 51.15612 | -0.17258 | 215 ft | 14 kts | 256° |
| 2026-05-04 13:23 | 51.15581 | -0.17414 | 212 ft | 16 kts | 221° |
| 2026-05-04 13:23 | 51.15474 | -0.17416 | 209 ft | 17 kts | 170° |
| 2026-05-04 13:24 | 51.15359 | -0.17374 | 214 ft | 17 kts | 177° |
| 2026-05-04 13:24 | 51.15293 | -0.17509 | 209 ft | 18 kts | 258° |
| 2026-05-04 13:24 | 51.15267 | -0.17695 | 209 ft | 17 kts | 257° |
| 2026-05-04 13:25 | 51.15227 | -0.17980 | 216 ft | 3 kts | 257° |
| 2026-05-04 13:25 | 51.15227 | -0.17983 | 216 ft | 0 kts | 257° |
| 2026-05-04 13:26 | 51.15227 | -0.17984 | 216 ft | 1 kts | 257° |
| 2026-05-04 13:26 | 51.15214 | -0.18076 | 214 ft | 15 kts | 257° |
| 2026-05-04 13:26 | 51.15191 | -0.18253 | 211 ft | 18 kts | 263° |
| 2026-05-04 13:26 | 51.15169 | -0.18452 | 213 ft | 19 kts | 258° |
| 2026-05-04 13:27 | 51.15141 | -0.18660 | 211 ft | 20 kts | 258° |
| 2026-05-04 13:27 | 51.15111 | -0.18875 | 216 ft | 20 kts | 256° |
| 2026-05-04 13:27 | 51.15080 | -0.19098 | 211 ft | 21 kts | 257° |
| 2026-05-04 13:27 | 51.15042 | -0.19261 | 210 ft | 15 kts | 204° |
| 2026-05-04 13:28 | 51.14956 | -0.19328 | 212 ft | 16 kts | 254° |
| 2026-05-04 13:28 | 51.14931 | -0.19507 | 212 ft | 17 kts | 258° |
| 2026-05-04 13:28 | 51.14905 | -0.19695 | 213 ft | 18 kts | 257° |
| 2026-05-04 13:28 | 51.14878 | -0.19893 | 213 ft | 19 kts | 257° |
| 2026-05-04 13:29 | 51.14849 | -0.20098 | 211 ft | 19 kts | 258° |
| 2026-05-04 13:29 | 51.14820 | -0.20311 | 213 ft | 20 kts | 257° |
| 2026-05-04 13:29 | 51.14790 | -0.20532 | 212 ft | 21 kts | 257° |
| 2026-05-04 13:29 | 51.14757 | -0.20715 | 210 ft | 10 kts | 218° |
| 2026-05-04 13:30 | 51.14705 | -0.20714 | 212 ft | 0 kts | 166° |
| 2026-05-04 13:30 | 51.14703 | -0.20713 | 212 ft | 2 kts | 166° |
| 2026-05-04 13:31 | 51.14644 | -0.20693 | 213 ft | 12 kts | 168° |
| 2026-05-04 13:31 | 51.14598 | -0.20604 | 219 ft | 10 kts | 79° |
| 2026-05-04 13:31 | 51.14602 | -0.20574 | 214 ft | 3 kts | 77° |
| 2026-05-04 13:31 | 51.14657 | -0.20174 | 212 ft | 73 kts | 77° |
| 2026-05-04 13:32 | 51.14814 | -0.19043 | 215 ft | 133 kts | 77° |
| 2026-05-04 13:32 | 51.15030 | -0.17448 | 412 ft | 154 kts | 77° |
| 2026-05-04 13:32 | 51.15262 | -0.15792 | 958 ft | 155 kts | 78° |
| 2026-05-04 13:32 | 51.15499 | -0.14067 | 1424 ft | 165 kts | 77° |
| 2026-05-04 13:33 | 51.15669 | -0.12174 | 1832 ft | 181 kts | 93° |
| 2026-05-04 13:33 | 51.15285 | -0.10155 | 2224 ft | 201 kts | 111° |
| 2026-05-04 13:33 | 51.14755 | -0.08008 | 2763 ft | 215 kts | 111° |
| 2026-05-04 13:33 | 51.14178 | -0.05666 | 3135 ft | 240 kts | 111° |
| 2026-05-04 13:34 | 51.13500 | -0.03118 | 3628 ft | 258 kts | 121° |
| 2026-05-04 13:34 | 51.12347 | -0.00899 | 4389 ft | 263 kts | 134° |
| 2026-05-04 13:34 | 51.11033 | 0.01162 | 5170 ft | 267 kts | 136° |
| 2026-05-04 13:34 | 51.09668 | 0.03170 | 5947 ft | 271 kts | 144° |
| 2026-05-04 13:35 | 51.07957 | 0.04471 | 6706 ft | 272 kts | 167° |
| 2026-05-04 13:35 | 51.04191 | 0.05398 | 8306 ft | 276 kts | 173° |
| 2026-05-04 13:35 | 51.02282 | 0.05824 | 9144 ft | 278 kts | 173° |
| 2026-05-04 13:36 | 51.00349 | 0.06271 | 9935 ft | 282 kts | 172° |
| 2026-05-04 13:36 | 50.98397 | 0.06735 | 10671 ft | 285 kts | 172° |
| 2026-05-04 13:36 | 50.96425 | 0.07214 | 11414 ft | 289 kts | 172° |
| 2026-05-04 13:36 | 50.94426 | 0.07702 | 12165 ft | 291 kts | 172° |
| 2026-05-04 13:37 | 50.92439 | 0.08188 | 12901 ft | 295 kts | 172° |
| 2026-05-04 13:37 | 50.90402 | 0.08687 | 13635 ft | 298 kts | 172° |
| 2026-05-04 13:37 | 50.88337 | 0.09192 | 14317 ft | 302 kts | 172° |
| 2026-05-04 13:37 | 50.86256 | 0.09702 | 15002 ft | 304 kts | 172° |
| 2026-05-04 13:38 | 50.84165 | 0.10217 | 15685 ft | 305 kts | 172° |
| 2026-05-04 13:38 | 50.82059 | 0.10733 | 16359 ft | 307 kts | 172° |
| 2026-05-04 13:38 | 50.79938 | 0.11251 | 17040 ft | 310 kts | 172° |
| 2026-05-04 13:38 | 50.77799 | 0.11773 | 17713 ft | 312 kts | 172° |
| 2026-05-04 13:39 | 50.75630 | 0.11995 | 18344 ft | 315 kts | 185° |
| 2026-05-04 13:39 | 50.73428 | 0.11400 | 18643 ft | 328 kts | 193° |
| 2026-05-04 13:39 | 50.71163 | 0.10536 | 18860 ft | 343 kts | 193° |
| 2026-05-04 13:39 | 50.68794 | 0.09622 | 19052 ft | 357 kts | 193° |
| 2026-05-04 13:40 | 50.66330 | 0.08697 | 19227 ft | 371 kts | 193° |
| 2026-05-04 13:40 | 50.63772 | 0.07754 | 19400 ft | 384 kts | 193° |
| 2026-05-04 13:40 | 50.61125 | 0.06788 | 19547 ft | 395 kts | 193° |
| 2026-05-04 13:40 | 50.58439 | 0.05813 | 19687 ft | 405 kts | 193° |
| 2026-05-04 13:41 | 50.55657 | 0.04809 | 19818 ft | 415 kts | 193° |
| 2026-05-04 13:41 | 50.52804 | 0.03781 | 19957 ft | 422 kts | 193° |
| 2026-05-04 13:41 | 50.49917 | 0.02821 | 20221 ft | 426 kts | 189° |
| 2026-05-04 13:42 | 50.44046 | 0.03251 | 20874 ft | 431 kts | 166° |
| 2026-05-04 13:42 | 50.41255 | 0.04990 | 21206 ft | 434 kts | 153° |
| 2026-05-04 13:42 | 50.38680 | 0.07510 | 21543 ft | 437 kts | 148° |
| 2026-05-04 13:42 | 50.36149 | 0.10199 | 21894 ft | 439 kts | 147° |
| 2026-05-04 13:43 | 50.33613 | 0.12893 | 22257 ft | 441 kts | 148° |
| 2026-05-04 13:43 | 50.31051 | 0.15564 | 22620 ft | 443 kts | 148° |
| 2026-05-04 13:43 | 50.28474 | 0.18222 | 22990 ft | 445 kts | 149° |
| 2026-05-04 13:43 | 50.25874 | 0.20889 | 23360 ft | 446 kts | 149° |
| 2026-05-04 13:44 | 50.23269 | 0.23553 | 23689 ft | 448 kts | 149° |
| 2026-05-04 13:44 | 50.20660 | 0.26237 | 24013 ft | 450 kts | 149° |
| 2026-05-04 13:44 | 50.18073 | 0.28900 | 24304 ft | 451 kts | 148° |
| 2026-05-04 13:44 | 50.15443 | 0.31616 | 24596 ft | 452 kts | 148° |
| 2026-05-04 13:45 | 50.12829 | 0.34311 | 24918 ft | 450 kts | 148° |
| 2026-05-04 13:45 | 50.10207 | 0.37010 | 25219 ft | 449 kts | 148° |
| 2026-05-04 13:45 | 50.07632 | 0.39659 | 25493 ft | 448 kts | 149° |
| 2026-05-04 13:45 | 50.05030 | 0.42321 | 25776 ft | 447 kts | 149° |
| 2026-05-04 13:46 | 50.02425 | 0.44981 | 26059 ft | 446 kts | 149° |
| 2026-05-04 13:46 | 49.99830 | 0.47630 | 26339 ft | 445 kts | 148° |
| 2026-05-04 13:46 | 49.97234 | 0.50270 | 26636 ft | 444 kts | 148° |
| 2026-05-04 13:46 | 49.94649 | 0.52897 | 26925 ft | 442 kts | 149° |
| 2026-05-04 13:47 | 49.92105 | 0.55473 | 27212 ft | 441 kts | 149° |
| 2026-05-04 13:47 | 49.89536 | 0.58072 | 27483 ft | 440 kts | 149° |
| 2026-05-04 13:47 | 49.86974 | 0.60669 | 27751 ft | 439 kts | 149° |
| 2026-05-04 13:47 | 49.84482 | 0.63412 | 28007 ft | 440 kts | 144° |
| 2026-05-04 13:48 | 49.82100 | 0.66402 | 28261 ft | 440 kts | 143° |
| 2026-05-04 13:48 | 49.79733 | 0.69425 | 28512 ft | 439 kts | 143° |
| 2026-05-04 13:48 | 49.77399 | 0.72392 | 28759 ft | 439 kts | 143° |
| 2026-05-04 13:48 | 49.75031 | 0.75380 | 29009 ft | 438 kts | 143° |
| 2026-05-04 13:49 | 49.72665 | 0.78352 | 29294 ft | 437 kts | 143° |
| 2026-05-04 13:49 | 49.70300 | 0.81316 | 29582 ft | 436 kts | 143° |
| 2026-05-04 13:49 | 49.67949 | 0.84257 | 29842 ft | 435 kts | 144° |
| 2026-05-04 13:49 | 49.65623 | 0.87165 | 30084 ft | 434 kts | 144° |
| 2026-05-04 13:50 | 49.63275 | 0.90099 | 30270 ft | 434 kts | 144° |
| 2026-05-04 13:50 | 49.60925 | 0.93031 | 30427 ft | 434 kts | 144° |
| 2026-05-04 13:50 | 49.58568 | 0.95965 | 30608 ft | 435 kts | 144° |
| 2026-05-04 13:50 | 49.56209 | 0.98898 | 30824 ft | 434 kts | 144° |
| 2026-05-04 13:51 | 49.53854 | 1.01823 | 31046 ft | 433 kts | 144° |
| 2026-05-04 13:51 | 49.51540 | 1.04693 | 31240 ft | 432 kts | 144° |
| 2026-05-04 13:51 | 49.49198 | 1.07593 | 31458 ft | 432 kts | 144° |
| 2026-05-04 13:51 | 49.46858 | 1.10490 | 31664 ft | 431 kts | 144° |
| 2026-05-04 13:52 | 49.42190 | 1.16258 | 32062 ft | 430 kts | 144° |
| 2026-05-04 13:52 | 49.39857 | 1.19136 | 32261 ft | 429 kts | 144° |
| 2026-05-04 13:52 | 49.37534 | 1.21998 | 32452 ft | 428 kts | 144° |
| 2026-05-04 13:53 | 49.35209 | 1.24855 | 32642 ft | 427 kts | 144° |
| 2026-05-04 13:53 | 49.32919 | 1.27668 | 32826 ft | 427 kts | 144° |
| 2026-05-04 13:53 | 49.30596 | 1.30519 | 32996 ft | 426 kts | 144° |
| 2026-05-04 13:54 | 49.25965 | 1.36186 | 33315 ft | 424 kts | 144° |
| 2026-05-04 13:54 | 49.23663 | 1.38999 | 33505 ft | 423 kts | 144° |
| 2026-05-04 13:54 | 49.19075 | 1.44600 | 33806 ft | 420 kts | 145° |
| 2026-05-04 13:55 | 49.16821 | 1.47341 | 33938 ft | 419 kts | 145° |
| 2026-05-04 13:55 | 49.12252 | 1.52899 | 34125 ft | 419 kts | 145° |
| 2026-05-04 13:55 | 49.09968 | 1.55671 | 34192 ft | 420 kts | 145° |
| 2026-05-04 13:56 | 49.05391 | 1.61219 | 34319 ft | 421 kts | 145° |
| 2026-05-04 13:56 | 49.00783 | 1.66784 | 34452 ft | 422 kts | 145° |
| 2026-05-04 13:57 | 48.98481 | 1.69562 | 34523 ft | 422 kts | 145° |
| 2026-05-04 13:58 | 48.89278 | 1.80627 | 34743 ft | 423 kts | 146° |
| 2026-05-04 13:58 | 48.84654 | 1.86168 | 34847 ft | 423 kts | 146° |
| 2026-05-04 13:58 | 48.82368 | 1.88902 | 34913 ft | 423 kts | 146° |
| 2026-05-04 13:59 | 48.77728 | 1.94439 | 34972 ft | 426 kts | 146° |
| 2026-05-04 14:00 | 48.70736 | 2.02763 | 34962 ft | 426 kts | 146° |
| 2026-05-04 14:00 | 48.63733 | 2.11069 | 34958 ft | 425 kts | 146° |
| 2026-05-04 14:01 | 48.59057 | 2.16598 | 34951 ft | 427 kts | 146° |
| 2026-05-04 14:02 | 48.52545 | 2.25717 | 34958 ft | 430 kts | 139° |
| 2026-05-04 14:02 | 48.48344 | 2.32124 | 34950 ft | 428 kts | 139° |
| 2026-05-04 14:03 | 48.44127 | 2.38512 | 34935 ft | 428 kts | 139° |
| 2026-05-04 14:03 | 48.39913 | 2.44870 | 34952 ft | 430 kts | 139° |
| 2026-05-04 14:04 | 48.33580 | 2.54403 | 34955 ft | 429 kts | 139° |
| 2026-05-04 14:04 | 48.29313 | 2.60713 | 34943 ft | 427 kts | 143° |
| 2026-05-04 14:05 | 48.24320 | 2.65332 | 34945 ft | 419 kts | 159° |
| 2026-05-04 14:05 | 48.21709 | 2.67135 | 34946 ft | 418 kts | 157° |
| 2026-05-04 14:06 | 48.16505 | 2.71214 | 34953 ft | 422 kts | 155° |
| 2026-05-04 14:06 | 48.11326 | 2.75374 | 34958 ft | 422 kts | 155° |
| 2026-05-04 14:07 | 48.06110 | 2.79249 | 34952 ft | 418 kts | 160° |
| 2026-05-04 14:07 | 48.00729 | 2.82642 | 34957 ft | 421 kts | 161° |
| 2026-05-04 14:08 | 47.95358 | 2.86040 | 34950 ft | 419 kts | 160° |
| 2026-05-04 14:08 | 47.89988 | 2.89442 | 34956 ft | 421 kts | 160° |
| 2026-05-04 14:09 | 47.81916 | 2.94543 | 34956 ft | 421 kts | 160° |
| 2026-05-04 14:10 | 47.73863 | 2.99623 | 34945 ft | 420 kts | 161° |
| 2026-05-04 14:10 | 47.68462 | 3.03023 | 34953 ft | 420 kts | 161° |
| 2026-05-04 14:11 | 47.63985 | 3.05840 | 34948 ft | 421 kts | 161° |
| 2026-05-04 14:11 | 47.55011 | 3.11452 | 34946 ft | 422 kts | 161° |
| 2026-05-04 14:12 | 47.49585 | 3.14835 | 34948 ft | 420 kts | 161° |
| 2026-05-04 14:13 | 47.42372 | 3.19315 | 34949 ft | 421 kts | 161° |
| 2026-05-04 14:13 | 47.36076 | 3.23214 | 34950 ft | 422 kts | 161° |
| 2026-05-04 14:14 | 47.31574 | 3.26005 | 34945 ft | 423 kts | 161° |
| 2026-05-04 14:14 | 47.23398 | 3.31050 | 34935 ft | 424 kts | 161° |
| 2026-05-04 14:15 | 47.12533 | 3.37727 | 34941 ft | 425 kts | 161° |
| 2026-05-04 14:16 | 47.04360 | 3.42734 | 34943 ft | 425 kts | 162° |
| 2026-05-04 14:17 | 46.96214 | 3.47704 | 34946 ft | 424 kts | 162° |
| 2026-05-04 14:18 | 46.88016 | 3.52684 | 34948 ft | 426 kts | 162° |
| 2026-05-04 14:19 | 46.77118 | 3.59313 | 34947 ft | 425 kts | 160° |
| 2026-05-04 14:19 | 46.72211 | 3.64377 | 34953 ft | 444 kts | 137° |
| 2026-05-04 14:19 | 46.70357 | 3.68028 | 34948 ft | 450 kts | 125° |
| 2026-05-04 14:20 | 46.69083 | 3.72192 | 34959 ft | 460 kts | 112° |
| 2026-05-04 14:20 | 46.67535 | 3.81317 | 34963 ft | 463 kts | 108° |
| 2026-05-04 14:21 | 46.65264 | 3.95023 | 34958 ft | 463 kts | 109° |
| 2026-05-04 14:21 | 46.63686 | 4.04132 | 34950 ft | 461 kts | 109° |
| 2026-05-04 14:22 | 46.62112 | 4.13166 | 34952 ft | 464 kts | 109° |
| 2026-05-04 14:22 | 46.60529 | 4.22227 | 34973 ft | 464 kts | 109° |
| 2026-05-04 14:23 | 46.58129 | 4.35863 | 34967 ft | 464 kts | 109° |
| 2026-05-04 14:24 | 46.56527 | 4.44923 | 34966 ft | 464 kts | 110° |
| 2026-05-04 14:24 | 46.54928 | 4.53909 | 34984 ft | 462 kts | 110° |
| 2026-05-04 14:25 | 46.53310 | 4.62961 | 34985 ft | 461 kts | 110° |
| 2026-05-04 14:25 | 46.50878 | 4.76480 | 34995 ft | 462 kts | 110° |
| 2026-05-04 14:26 | 46.49237 | 4.85544 | 34980 ft | 460 kts | 110° |
| 2026-05-04 14:26 | 46.47600 | 4.94531 | 34998 ft | 463 kts | 110° |
| 2026-05-04 14:27 | 46.45953 | 5.03544 | 35009 ft | 464 kts | 110° |
| 2026-05-04 14:27 | 46.44288 | 5.12606 | 35007 ft | 466 kts | 110° |
| 2026-05-04 14:28 | 46.42629 | 5.21621 | 35014 ft | 465 kts | 110° |
| 2026-05-04 14:28 | 46.40951 | 5.30683 | 35010 ft | 463 kts | 110° |
| 2026-05-04 14:29 | 46.35879 | 5.47287 | 35026 ft | 446 kts | 136° |
| 2026-05-04 14:30 | 46.31824 | 5.54034 | 35025 ft | 445 kts | 137° |
| 2026-05-04 14:31 | 46.25773 | 5.64194 | 35035 ft | 447 kts | 136° |
| 2026-05-04 14:32 | 46.17685 | 5.77822 | 35064 ft | 445 kts | 136° |
| 2026-05-04 14:32 | 46.13633 | 5.84620 | 35076 ft | 445 kts | 136° |
| 2026-05-04 14:33 | 46.09605 | 5.91360 | 35071 ft | 447 kts | 136° |
| 2026-05-04 14:33 | 46.05547 | 5.98140 | 35062 ft | 449 kts | 136° |
| 2026-05-04 14:34 | 46.01476 | 6.04924 | 35082 ft | 447 kts | 136° |
| 2026-05-04 14:34 | 45.97372 | 6.11745 | 35079 ft | 453 kts | 136° |
| 2026-05-04 14:35 | 45.93287 | 6.18520 | 35082 ft | 452 kts | 136° |
| 2026-05-04 14:35 | 45.89166 | 6.25331 | 35080 ft | 450 kts | 136° |
| 2026-05-04 14:36 | 45.85068 | 6.32086 | 35052 ft | 451 kts | 136° |
| 2026-05-04 14:36 | 45.80856 | 6.38812 | 35061 ft | 449 kts | 142° |
| 2026-05-04 14:37 | 45.75924 | 6.44169 | 35062 ft | 445 kts | 150° |
| 2026-05-04 14:37 | 45.70865 | 6.49254 | 35068 ft | 445 kts | 150° |
| 2026-05-04 14:38 | 45.65842 | 6.54338 | 35063 ft | 444 kts | 150° |
| 2026-05-04 14:38 | 45.60786 | 6.59465 | 35083 ft | 444 kts | 150° |
| 2026-05-04 14:39 | 45.55717 | 6.64591 | 35071 ft | 449 kts | 150° |
| 2026-05-04 14:39 | 45.50606 | 6.69753 | 35084 ft | 449 kts | 150° |
| 2026-05-04 14:40 | 45.42920 | 6.77485 | 35118 ft | 451 kts | 150° |
| 2026-05-04 14:40 | 45.37840 | 6.82586 | 35127 ft | 449 kts | 150° |
| 2026-05-04 14:41 | 45.32715 | 6.87712 | 35155 ft | 450 kts | 150° |
| 2026-05-04 14:42 | 45.22851 | 6.98832 | 35142 ft | 460 kts | 141° |
| 2026-05-04 14:42 | 45.18290 | 7.05166 | 35134 ft | 458 kts | 141° |
| 2026-05-04 14:43 | 45.13708 | 7.11473 | 35115 ft | 462 kts | 142° |
| 2026-05-04 14:43 | 45.09377 | 7.18130 | 35106 ft | 470 kts | 131° |
| 2026-05-04 14:44 | 45.05630 | 7.25713 | 35110 ft | 470 kts | 130° |
| 2026-05-04 14:44 | 45.01890 | 7.33288 | 35114 ft | 469 kts | 130° |
| 2026-05-04 14:45 | 44.98142 | 7.40787 | 35126 ft | 468 kts | 131° |
| 2026-05-04 14:45 | 44.94403 | 7.48327 | 35112 ft | 469 kts | 130° |
| 2026-05-04 14:46 | 44.90643 | 7.55883 | 35124 ft | 473 kts | 130° |
| 2026-05-04 14:46 | 44.86862 | 7.63480 | 35103 ft | 475 kts | 130° |
| 2026-05-04 14:47 | 44.83074 | 7.71059 | 35116 ft | 473 kts | 130° |
| 2026-05-04 14:47 | 44.79276 | 7.78632 | 35108 ft | 473 kts | 130° |
| 2026-05-04 14:48 | 44.75503 | 7.86147 | 35105 ft | 472 kts | 130° |
| 2026-05-04 14:48 | 44.71708 | 7.93690 | 35088 ft | 473 kts | 131° |
| 2026-05-04 14:49 | 44.67863 | 8.01299 | 35094 ft | 476 kts | 130° |
| 2026-05-04 14:49 | 44.64026 | 8.08877 | 35100 ft | 475 kts | 130° |
| 2026-05-04 14:50 | 44.60211 | 8.16387 | 35101 ft | 474 kts | 130° |
| 2026-05-04 14:50 | 44.56364 | 8.23935 | 35106 ft | 474 kts | 130° |
| 2026-05-04 14:51 | 44.52545 | 8.31420 | 35100 ft | 475 kts | 130° |
| 2026-05-04 14:51 | 44.48693 | 8.38954 | 35094 ft | 474 kts | 130° |
| 2026-05-04 14:52 | 44.44860 | 8.46427 | 35115 ft | 474 kts | 130° |
| 2026-05-04 14:52 | 44.40995 | 8.53933 | 35123 ft | 474 kts | 130° |
| 2026-05-04 14:53 | 44.37133 | 8.61419 | 35130 ft | 475 kts | 130° |
| 2026-05-04 14:53 | 44.33305 | 8.68862 | 35135 ft | 474 kts | 130° |
| 2026-05-04 14:54 | 44.29433 | 8.76332 | 35097 ft | 477 kts | 130° |
| 2026-05-04 14:54 | 44.25550 | 8.83798 | 35088 ft | 477 kts | 131° |
| 2026-05-04 14:55 | 44.21659 | 8.91270 | 35100 ft | 477 kts | 130° |
| 2026-05-04 14:55 | 44.17758 | 8.98740 | 35095 ft | 477 kts | 131° |
| 2026-05-04 14:56 | 44.13840 | 9.06209 | 35083 ft | 477 kts | 131° |
| 2026-05-04 14:56 | 44.09937 | 9.13624 | 35079 ft | 477 kts | 130° |
| 2026-05-04 14:57 | 44.06008 | 9.21084 | 35089 ft | 477 kts | 130° |
| 2026-05-04 14:57 | 44.02068 | 9.28558 | 35079 ft | 481 kts | 130° |
| 2026-05-04 14:58 | 43.98138 | 9.36005 | 35079 ft | 480 kts | 130° |
| 2026-05-04 14:58 | 43.94842 | 9.42222 | 35082 ft | 480 kts | 131° |
| 2026-05-04 14:59 | 43.90228 | 9.50900 | 35077 ft | 479 kts | 130° |
| 2026-05-04 15:00 | 43.84269 | 9.62059 | 35080 ft | 481 kts | 130° |
| 2026-05-04 15:00 | 43.80302 | 9.69473 | 35077 ft | 481 kts | 131° |
| 2026-05-04 15:01 | 43.74965 | 9.79415 | 35082 ft | 483 kts | 131° |
| 2026-05-04 15:01 | 43.70955 | 9.86866 | 35078 ft | 484 kts | 130° |
| 2026-05-04 15:02 | 43.66921 | 9.94331 | 35085 ft | 483 kts | 130° |
| 2026-05-04 15:02 | 43.62894 | 10.01776 | 35093 ft | 483 kts | 131° |
| 2026-05-04 15:03 | 43.58863 | 10.09211 | 35094 ft | 483 kts | 131° |
| 2026-05-04 15:03 | 43.54827 | 10.16626 | 35101 ft | 489 kts | 131° |
| 2026-05-04 15:04 | 43.50728 | 10.24146 | 35108 ft | 489 kts | 131° |
| 2026-05-04 15:04 | 43.46652 | 10.31584 | 35113 ft | 489 kts | 131° |
| 2026-05-04 15:05 | 43.42897 | 10.39433 | 35114 ft | 491 kts | 126° |
| 2026-05-04 15:05 | 43.39236 | 10.47386 | 35122 ft | 491 kts | 126° |
| 2026-05-04 15:06 | 43.35557 | 10.55250 | 35121 ft | 491 kts | 126° |
| 2026-05-04 15:07 | 43.29970 | 10.67131 | 35117 ft | 498 kts | 127° |
| 2026-05-04 15:07 | 43.26199 | 10.75117 | 35126 ft | 497 kts | 127° |
| 2026-05-04 15:08 | 43.22429 | 10.83083 | 35126 ft | 497 kts | 127° |
| 2026-05-04 15:08 | 43.18650 | 10.91038 | 35126 ft | 497 kts | 127° |
| 2026-05-04 15:09 | 43.14866 | 10.98985 | 35124 ft | 498 kts | 127° |
| 2026-05-04 15:09 | 43.11100 | 11.06880 | 35090 ft | 494 kts | 127° |
| 2026-05-04 15:10 | 43.07332 | 11.14752 | 33624 ft | 497 kts | 127° |
| 2026-05-04 15:10 | 43.05428 | 11.18721 | 33210 ft | 500 kts | 127° |
| 2026-05-04 15:10 | 43.01618 | 11.26656 | 33107 ft | 501 kts | 127° |
| 2026-05-04 15:11 | 42.99702 | 11.30634 | 33115 ft | 501 kts | 127° |
| 2026-05-04 15:11 | 42.95863 | 11.38594 | 33122 ft | 502 kts | 127° |
| 2026-05-04 15:12 | 42.92009 | 11.46562 | 33137 ft | 502 kts | 127° |
| 2026-05-04 15:12 | 42.88142 | 11.54533 | 33136 ft | 503 kts | 127° |
| 2026-05-04 15:13 | 42.84294 | 11.62444 | 33132 ft | 503 kts | 127° |
| 2026-05-04 15:13 | 42.80404 | 11.70427 | 33137 ft | 506 kts | 127° |
| 2026-05-04 15:14 | 42.76491 | 11.78430 | 33149 ft | 507 kts | 127° |
| 2026-05-04 15:14 | 42.72587 | 11.86367 | 33148 ft | 507 kts | 127° |
| 2026-05-04 15:15 | 42.68664 | 11.94333 | 33151 ft | 507 kts | 127° |
| 2026-05-04 15:15 | 42.64741 | 12.02303 | 33151 ft | 507 kts | 127° |
| 2026-05-04 15:16 | 42.58863 | 12.14203 | 33148 ft | 505 kts | 127° |
| 2026-05-04 15:17 | 42.52958 | 12.26081 | 33156 ft | 510 kts | 127° |
| 2026-05-04 15:17 | 42.46985 | 12.38071 | 33155 ft | 510 kts | 127° |
| 2026-05-04 15:18 | 42.43052 | 12.45950 | 33147 ft | 503 kts | 127° |
| 2026-05-04 15:19 | 42.37139 | 12.57743 | 33169 ft | 508 kts | 127° |
| 2026-05-04 15:19 | 42.31194 | 12.69551 | 33159 ft | 508 kts | 127° |
| 2026-05-04 15:20 | 42.27181 | 12.77486 | 33162 ft | 512 kts | 126° |
| 2026-05-04 15:20 | 42.23158 | 12.85421 | 33156 ft | 508 kts | 127° |
| 2026-05-04 15:21 | 42.19207 | 12.93176 | 33149 ft | 504 kts | 127° |
| 2026-05-04 15:22 | 42.13193 | 13.04986 | 33157 ft | 510 kts | 127° |
| 2026-05-04 15:22 | 42.07154 | 13.16785 | 33145 ft | 507 kts | 126° |
| 2026-05-04 15:23 | 42.03194 | 13.24487 | 32681 ft | 503 kts | 126° |
| 2026-05-04 15:23 | 42.01201 | 13.28355 | 32213 ft | 502 kts | 126° |
| 2026-05-04 15:23 | 41.99202 | 13.32228 | 31480 ft | 503 kts | 126° |
| 2026-05-04 15:24 | 41.95203 | 13.40010 | 29834 ft | 507 kts | 126° |
| 2026-05-04 15:24 | 41.91204 | 13.47751 | 27924 ft | 507 kts | 126° |
| 2026-05-04 15:25 | 41.89184 | 13.51636 | 27000 ft | 504 kts | 126° |
| 2026-05-04 15:25 | 41.87182 | 13.55486 | 26096 ft | 502 kts | 126° |
| 2026-05-04 15:25 | 41.85186 | 13.59328 | 25190 ft | 500 kts | 126° |
| 2026-05-04 15:26 | 41.81245 | 13.66914 | 23574 ft | 490 kts | 126° |
| 2026-05-04 15:26 | 41.79294 | 13.70654 | 22693 ft | 485 kts | 126° |
| 2026-05-04 15:26 | 41.75519 | 13.77887 | 21278 ft | 469 kts | 126° |
| 2026-05-04 15:27 | 41.73656 | 13.81445 | 20518 ft | 463 kts | 126° |
| 2026-05-04 15:27 | 41.70002 | 13.88408 | 19089 ft | 455 kts | 126° |
| 2026-05-04 15:28 | 41.66200 | 13.95106 | 17923 ft | 444 kts | 137° |
| 2026-05-04 15:28 | 41.63961 | 13.97926 | 17599 ft | 439 kts | 139° |
| 2026-05-04 15:28 | 41.59484 | 14.03430 | 17047 ft | 434 kts | 139° |
| 2026-05-04 15:29 | 41.57304 | 14.06148 | 16729 ft | 430 kts | 139° |
| 2026-05-04 15:30 | 41.48733 | 14.16884 | 14434 ft | 417 kts | 138° |
| 2026-05-04 15:30 | 41.42541 | 14.24626 | 13163 ft | 400 kts | 138° |
| 2026-05-04 15:31 | 41.38587 | 14.29560 | 13118 ft | 369 kts | 139° |
| 2026-05-04 15:31 | 41.36754 | 14.31842 | 13052 ft | 352 kts | 139° |
| 2026-05-04 15:32 | 41.31536 | 14.38328 | 11785 ft | 336 kts | 138° |
| 2026-05-04 15:32 | 41.28181 | 14.42490 | 11178 ft | 321 kts | 138° |
| 2026-05-04 15:33 | 41.25035 | 14.46381 | 10909 ft | 298 kts | 138° |
| 2026-05-04 15:34 | 41.20533 | 14.51942 | 9767 ft | 292 kts | 139° |
| 2026-05-04 15:34 | 41.19067 | 14.53751 | 9380 ft | 290 kts | 138° |
| 2026-05-04 15:34 | 41.16122 | 14.57387 | 8596 ft | 287 kts | 138° |
| 2026-05-04 15:35 | 41.13015 | 14.60642 | 7857 ft | 283 kts | 148° |
| 2026-05-04 15:35 | 41.11343 | 14.62019 | 7488 ft | 282 kts | 149° |
| 2026-05-04 15:35 | 41.09694 | 14.63372 | 7150 ft | 281 kts | 149° |
| 2026-05-04 15:36 | 41.06285 | 14.65148 | 6963 ft | 250 kts | 189° |
| 2026-05-04 15:36 | 41.04776 | 14.64296 | 6884 ft | 231 kts | 223° |
| 2026-05-04 15:36 | 41.03778 | 14.62560 | 6584 ft | 242 kts | 241° |
| 2026-05-04 15:37 | 41.03021 | 14.60562 | 6202 ft | 243 kts | 244° |
| 2026-05-04 15:37 | 41.02299 | 14.58573 | 5789 ft | 242 kts | 243° |
| 2026-05-04 15:37 | 41.01521 | 14.56611 | 5389 ft | 238 kts | 240° |
| 2026-05-04 15:37 | 41.00662 | 14.54755 | 5026 ft | 233 kts | 238° |
| 2026-05-04 15:38 | 40.99817 | 14.52944 | 4651 ft | 228 kts | 238° |
| 2026-05-04 15:38 | 40.98994 | 14.51187 | 4279 ft | 218 kts | 238° |
| 2026-05-04 15:38 | 40.98216 | 14.49527 | 4077 ft | 208 kts | 238° |
| 2026-05-04 15:38 | 40.97466 | 14.47929 | 3757 ft | 205 kts | 238° |
| 2026-05-04 15:39 | 40.96718 | 14.46336 | 3431 ft | 202 kts | 238° |
| 2026-05-04 15:39 | 40.95983 | 14.44769 | 3085 ft | 198 kts | 238° |
| 2026-05-04 15:39 | 40.94600 | 14.41825 | 2530 ft | 177 kts | 239° |
| 2026-05-04 15:40 | 40.93970 | 14.40483 | 2250 ft | 167 kts | 239° |
| 2026-05-04 15:40 | 40.93384 | 14.39236 | 1996 ft | 155 kts | 239° |
| 2026-05-04 15:40 | 40.92845 | 14.38089 | 1780 ft | 139 kts | 239° |
| 2026-05-04 15:40 | 40.92339 | 14.37011 | 1565 ft | 137 kts | 238° |
| 2026-05-04 15:41 | 40.91833 | 14.35934 | 1359 ft | 139 kts | 238° |
| 2026-05-04 15:41 | 40.91329 | 14.34862 | 1160 ft | 136 kts | 237° |
| 2026-05-04 15:41 | 40.90830 | 14.33800 | 958 ft | 136 kts | 236° |
| 2026-05-04 15:41 | 40.90342 | 14.32765 | 756 ft | 136 kts | 236° |
| 2026-05-04 15:42 | 40.89846 | 14.31702 | 529 ft | 134 kts | 236° |
| 2026-05-04 15:42 | 40.89353 | 14.30658 | 351 ft | 136 kts | 236° |
| 2026-05-04 15:42 | 40.88865 | 14.29632 | 258 ft | 119 kts | 238° |
| 2026-05-04 15:42 | 40.88538 | 14.28936 | 276 ft | 60 kts | 237° |
| 2026-05-04 15:43 | 40.88404 | 14.28651 | 283 ft | 27 kts | 238° |
| 2026-05-04 15:43 | 40.88282 | 14.28465 | 287 ft | 25 kts | 214° |
| 2026-05-04 15:43 | 40.88161 | 14.28374 | 291 ft | 15 kts | 208° |
| 2026-05-04 15:43 | 40.88103 | 14.28333 | 293 ft | 7 kts | 208° |
| 2026-05-04 15:44 | 40.88061 | 14.28356 | 292 ft | 10 kts | 101° |
| 2026-05-04 15:44 | 40.88050 | 14.28451 | 291 ft | 11 kts | 97° |
| 2026-05-04 15:44 | 40.88033 | 14.28533 | 293 ft | 6 kts | 154° |
| 2026-05-04 15:44 | 40.87989 | 14.28516 | 293 ft | 8 kts | 213° |
| 2026-05-04 15:45 | 40.87942 | 14.28457 | 293 ft | 10 kts | 245° |
| 2026-05-04 15:45 | 40.87942 | 14.28365 | 296 ft | 8 kts | 279° |
| 2026-05-04 15:45 | 40.87947 | 14.28316 | 295 ft | 5 kts | 276° |
| 2026-05-04 15:45 | 40.87923 | 14.28290 | 296 ft | 3 kts | 184° |
| 2026-05-04 15:46 | 40.87895 | 14.28287 | 296 ft | 5 kts | 186° |
| 2026-05-04 15:46 | 40.87881 | 14.28285 | 296 ft | 0 kts | 187° |